sensor_id;sensor_type;location;lat;lon;timestamp;noise_LAeq;noise_LA_min;noise_LA_max;noise_LA01;noise_LA95
79200;Laerm;68628;48.714;9.472;2023-08-12T00:01:45;53.60;51.85;56.08;;
79200;Laerm;68628;48.714;9.472;2023-08-12T00:04:51;52.83;51.70;55.30;;
79200;Laerm;68628;48.714;9.472;2023-08-12T00:07:27;52.98;51.95;54.91;;
79200;Laerm;68628;48.714;9.472;2023-08-12T00:13:35;53.52;52.51;54.90;;
79200;Laerm;68628;48.714;9.472;2023-08-12T00:17:19;53.13;51.72;55.72;;
79200;Laerm;68628;48.714;9.472;2023-08-12T00:19:55;53.01;51.68;54.68;;
79200;Laerm;68628;48.714;9.472;2023-08-12T00:23:09;53.02;52.11;56.10;;
79200;Laerm;68628;48.714;9.472;2023-08-12T00:26:10;52.89;51.90;55.08;;
79200;Laerm;68628;48.714;9.472;2023-08-12T00:28:42;53.30;52.14;55.34;;
79200;Laerm;68628;48.714;9.472;2023-08-12T00:31:08;53.67;52.14;56.86;;
79200;Laerm;68628;48.714;9.472;2023-08-12T00:33:34;53.72;52.21;55.92;;
79200;Laerm;68628;48.714;9.472;2023-08-12T00:36:00;53.94;51.28;56.16;;
79200;Laerm;68628;48.714;9.472;2023-08-12T00:38:25;53.50;51.29;55.83;;
79200;Laerm;68628;48.714;9.472;2023-08-12T00:40:51;55.52;51.44;57.60;;
79200;Laerm;68628;48.714;9.472;2023-08-12T00:43:16;54.84;52.30;57.36;;
79200;Laerm;68628;48.714;9.472;2023-08-12T00:45:43;54.58;51.98;57.43;;
79200;Laerm;68628;48.714;9.472;2023-08-12T00:48:10;54.91;51.88;57.62;;
79200;Laerm;68628;48.714;9.472;2023-08-12T00:50:37;55.21;52.09;58.14;;
79200;Laerm;68628;48.714;9.472;2023-08-12T00:53:04;54.80;52.19;59.11;;
79200;Laerm;68628;48.714;9.472;2023-08-12T00:55:33;54.86;51.70;58.42;;
79200;Laerm;68628;48.714;9.472;2023-08-12T00:57:59;54.90;52.06;59.69;;
79200;Laerm;68628;48.714;9.472;2023-08-12T01:00:25;54.90;52.24;58.41;;
79200;Laerm;68628;48.714;9.472;2023-08-12T01:02:55;54.96;52.47;58.86;;
79200;Laerm;68628;48.714;9.472;2023-08-12T01:05:25;55.29;52.55;56.82;;
79200;Laerm;68628;48.714;9.472;2023-08-12T01:07:53;54.79;52.22;58.40;;
79200;Laerm;68628;48.714;9.472;2023-08-12T01:10:26;54.39;52.43;58.43;;
79200;Laerm;68628;48.714;9.472;2023-08-12T01:13:33;52.87;51.07;54.91;;
79200;Laerm;68628;48.714;9.472;2023-08-12T01:16:08;51.91;51.09;53.52;;
79200;Laerm;68628;48.714;9.472;2023-08-12T01:18:38;52.23;51.17;54.52;;
79200;Laerm;68628;48.714;9.472;2023-08-12T01:21:15;52.34;51.26;54.75;;
79200;Laerm;68628;48.714;9.472;2023-08-12T01:23:43;52.09;51.18;58.79;;
79200;Laerm;68628;48.714;9.472;2023-08-12T01:26:12;51.90;51.01;55.25;;
79200;Laerm;68628;48.714;9.472;2023-08-12T01:28:40;51.64;50.90;53.75;;
79200;Laerm;68628;48.714;9.472;2023-08-12T01:31:16;51.97;51.16;53.00;;
79200;Laerm;68628;48.714;9.472;2023-08-12T01:34:06;52.21;51.35;53.26;;
79200;Laerm;68628;48.714;9.472;2023-08-12T01:36:37;51.88;51.00;53.39;;
79200;Laerm;68628;48.714;9.472;2023-08-12T01:39:08;51.69;51.07;53.00;;
79200;Laerm;68628;48.714;9.472;2023-08-12T01:41:36;52.54;51.49;53.38;;
79200;Laerm;68628;48.714;9.472;2023-08-12T01:44:05;51.92;50.94;53.67;;
79200;Laerm;68628;48.714;9.472;2023-08-12T01:46:36;51.96;51.01;52.78;;
79200;Laerm;68628;48.714;9.472;2023-08-12T01:49:02;52.28;51.65;52.79;;
79200;Laerm;68628;48.714;9.472;2023-08-12T01:51:30;52.08;51.06;52.93;;
79200;Laerm;68628;48.714;9.472;2023-08-12T01:53:56;51.62;50.97;52.85;;
79200;Laerm;68628;48.714;9.472;2023-08-12T01:56:21;51.82;50.96;52.71;;
79200;Laerm;68628;48.714;9.472;2023-08-12T01:58:47;51.46;50.85;52.38;;
79200;Laerm;68628;48.714;9.472;2023-08-12T02:01:13;51.41;50.50;52.46;;
79200;Laerm;68628;48.714;9.472;2023-08-12T02:03:39;51.44;50.70;52.23;;
79200;Laerm;68628;48.714;9.472;2023-08-12T02:06:05;51.40;50.59;52.15;;
79200;Laerm;68628;48.714;9.472;2023-08-12T02:08:31;51.36;50.81;52.03;;
79200;Laerm;68628;48.714;9.472;2023-08-12T02:11:00;51.41;50.73;52.23;;
79200;Laerm;68628;48.714;9.472;2023-08-12T02:13:26;51.40;50.70;52.03;;
79200;Laerm;68628;48.714;9.472;2023-08-12T02:15:55;51.41;50.81;52.13;;
79200;Laerm;68628;48.714;9.472;2023-08-12T02:18:24;51.38;50.82;57.04;;
79200;Laerm;68628;48.714;9.472;2023-08-12T02:20:52;51.33;50.71;51.91;;
79200;Laerm;68628;48.714;9.472;2023-08-12T02:23:18;51.32;50.74;51.84;;
79200;Laerm;68628;48.714;9.472;2023-08-12T02:25:45;51.33;50.79;51.96;;
79200;Laerm;68628;48.714;9.472;2023-08-12T02:28:12;51.31;50.57;51.83;;
79200;Laerm;68628;48.714;9.472;2023-08-12T02:30:38;51.34;50.85;51.91;;
79200;Laerm;68628;48.714;9.472;2023-08-12T02:33:04;51.44;50.55;53.20;;
79200;Laerm;68628;48.714;9.472;2023-08-12T02:35:30;51.39;50.78;52.92;;
79200;Laerm;68628;48.714;9.472;2023-08-12T02:37:58;51.38;50.86;52.92;;
79200;Laerm;68628;48.714;9.472;2023-08-12T02:40:24;51.40;50.81;52.55;;
79200;Laerm;68628;48.714;9.472;2023-08-12T02:42:50;51.40;50.72;52.55;;
79200;Laerm;68628;48.714;9.472;2023-08-12T02:45:17;51.34;50.80;51.96;;
79200;Laerm;68628;48.714;9.472;2023-08-12T02:47:46;51.35;50.69;51.87;;
79200;Laerm;68628;48.714;9.472;2023-08-12T02:50:14;51.34;50.71;51.94;;
79200;Laerm;68628;48.714;9.472;2023-08-12T02:52:40;51.34;50.86;51.98;;
79200;Laerm;68628;48.714;9.472;2023-08-12T02:55:06;51.35;50.73;51.90;;
79200;Laerm;68628;48.714;9.472;2023-08-12T02:57:35;51.35;50.59;51.97;;
79200;Laerm;68628;48.714;9.472;2023-08-12T03:00:01;51.36;50.84;51.89;;
79200;Laerm;68628;48.714;9.472;2023-08-12T03:02:27;51.36;50.70;51.99;;
79200;Laerm;68628;48.714;9.472;2023-08-12T03:04:53;51.42;50.86;52.70;;
79200;Laerm;68628;48.714;9.472;2023-08-12T03:07:20;51.44;50.87;52.67;;
79200;Laerm;68628;48.714;9.472;2023-08-12T03:09:49;51.45;50.85;53.15;;
79200;Laerm;68628;48.714;9.472;2023-08-12T03:12:15;51.48;50.86;53.54;;
79200;Laerm;68628;48.714;9.472;2023-08-12T03:14:41;51.49;50.77;53.19;;
79200;Laerm;68628;48.714;9.472;2023-08-12T03:17:07;51.51;50.75;53.65;;
79200;Laerm;68628;48.714;9.472;2023-08-12T03:19:34;51.43;50.85;53.04;;
79200;Laerm;68628;48.714;9.472;2023-08-12T03:22:04;51.50;50.62;53.48;;
79200;Laerm;68628;48.714;9.472;2023-08-12T03:24:33;51.48;50.69;53.35;;
79200;Laerm;68628;48.714;9.472;2023-08-12T03:26:59;51.42;50.82;52.92;;
79200;Laerm;68628;48.714;9.472;2023-08-12T03:29:25;51.42;50.87;52.69;;
79200;Laerm;68628;48.714;9.472;2023-08-12T03:31:52;51.43;50.86;52.77;;
79200;Laerm;68628;48.714;9.472;2023-08-12T03:34:20;51.54;50.88;53.48;;
79200;Laerm;68628;48.714;9.472;2023-08-12T03:36:46;51.45;50.84;53.18;;
79200;Laerm;68628;48.714;9.472;2023-08-12T03:39:14;51.45;50.89;52.77;;
79200;Laerm;68628;48.714;9.472;2023-08-12T03:41:43;51.37;50.70;51.98;;
79200;Laerm;68628;48.714;9.472;2023-08-12T03:44:09;51.43;50.87;52.85;;
79200;Laerm;68628;48.714;9.472;2023-08-12T03:46:40;51.38;50.71;51.94;;
79200;Laerm;68628;48.714;9.472;2023-08-12T03:49:06;51.39;50.80;51.97;;
79200;Laerm;68628;48.714;9.472;2023-08-12T03:51:35;51.39;50.81;52.21;;
79200;Laerm;68628;48.714;9.472;2023-08-12T03:54:01;51.38;50.83;52.88;;
79200;Laerm;68628;48.714;9.472;2023-08-12T03:56:30;51.48;50.84;53.12;;
79200;Laerm;68628;48.714;9.472;2023-08-12T03:58:56;51.40;50.63;52.89;;
79200;Laerm;68628;48.714;9.472;2023-08-12T04:01:23;51.40;50.77;52.57;;
79200;Laerm;68628;48.714;9.472;2023-08-12T04:03:50;51.38;50.86;52.56;;
79200;Laerm;68628;48.714;9.472;2023-08-12T04:06:16;51.38;50.80;52.45;;
79200;Laerm;68628;48.714;9.472;2023-08-12T04:08:45;51.39;50.62;52.32;;
79200;Laerm;68628;48.714;9.472;2023-08-12T04:11:13;51.39;50.82;52.17;;
79200;Laerm;68628;48.714;9.472;2023-08-12T04:13:39;51.44;50.81;52.92;;
79200;Laerm;68628;48.714;9.472;2023-08-12T04:16:05;51.42;50.82;51.94;;
79200;Laerm;68628;48.714;9.472;2023-08-12T04:18:32;51.45;50.88;52.32;;
79200;Laerm;68628;48.714;9.472;2023-08-12T04:21:01;51.41;50.89;52.21;;
79200;Laerm;68628;48.714;9.472;2023-08-12T04:23:29;51.41;50.85;52.02;;
79200;Laerm;68628;48.714;9.472;2023-08-12T04:25:56;51.38;50.69;51.96;;
79200;Laerm;68628;48.714;9.472;2023-08-12T04:28:24;51.42;50.84;52.03;;
79200;Laerm;68628;48.714;9.472;2023-08-12T04:30:51;51.56;50.88;52.99;;
79200;Laerm;68628;48.714;9.472;2023-08-12T04:33:18;51.61;50.91;52.70;;
79200;Laerm;68628;48.714;9.472;2023-08-12T04:35:47;51.41;50.84;52.08;;
79200;Laerm;68628;48.714;9.472;2023-08-12T04:38:13;51.40;50.81;51.96;;
79200;Laerm;68628;48.714;9.472;2023-08-12T04:40:41;51.38;50.87;52.66;;
79200;Laerm;68628;48.714;9.472;2023-08-12T04:43:10;51.33;50.75;52.62;;
79200;Laerm;68628;48.714;9.472;2023-08-12T04:45:38;51.58;50.94;52.99;;
79200;Laerm;68628;48.714;9.472;2023-08-12T04:48:06;51.65;50.84;52.99;;
79200;Laerm;68628;48.714;9.472;2023-08-12T04:50:36;51.68;50.94;52.68;;
79200;Laerm;68628;48.714;9.472;2023-08-12T04:53:05;51.71;50.82;53.91;;
79200;Laerm;68628;48.714;9.472;2023-08-12T04:55:31;51.93;50.78;54.07;;
79200;Laerm;68628;48.714;9.472;2023-08-12T04:58:01;52.41;51.01;54.16;;
79200;Laerm;68628;48.714;9.472;2023-08-12T05:00:29;53.04;51.01;54.57;;
79200;Laerm;68628;48.714;9.472;2023-08-12T05:02:56;52.57;50.99;54.45;;
79200;Laerm;68628;48.714;9.472;2023-08-12T05:05:22;52.03;50.92;54.01;;
79200;Laerm;68628;48.714;9.472;2023-08-12T05:07:48;53.33;51.05;57.73;;
79200;Laerm;68628;48.714;9.472;2023-08-12T05:10:16;52.47;50.95;54.23;;
79200;Laerm;68628;48.714;9.472;2023-08-12T05:12:45;51.58;51.01;52.21;;
79200;Laerm;68628;48.714;9.472;2023-08-12T05:15:12;51.61;50.93;52.31;;
79200;Laerm;68628;48.714;9.472;2023-08-12T05:17:39;51.59;50.95;52.30;;
79200;Laerm;68628;48.714;9.472;2023-08-12T05:20:06;51.63;51.04;52.18;;
79200;Laerm;68628;48.714;9.472;2023-08-12T05:22:32;51.63;50.91;52.36;;
79200;Laerm;68628;48.714;9.472;2023-08-12T05:24:58;51.54;50.84;52.23;;
79200;Laerm;68628;48.714;9.472;2023-08-12T05:27:25;51.52;50.87;52.33;;
79200;Laerm;68628;48.714;9.472;2023-08-12T05:29:51;51.63;50.72;53.31;;
79200;Laerm;68628;48.714;9.472;2023-08-12T05:32:20;51.29;50.72;51.94;;
79200;Laerm;68628;48.714;9.472;2023-08-12T05:34:52;51.34;50.83;52.06;;
79200;Laerm;68628;48.714;9.472;2023-08-12T05:37:21;51.32;50.81;51.91;;
79200;Laerm;68628;48.714;9.472;2023-08-12T05:39:46;51.32;50.71;51.90;;
79200;Laerm;68628;48.714;9.472;2023-08-12T05:42:12;51.31;50.78;51.84;;
79200;Laerm;68628;48.714;9.472;2023-08-12T05:44:50;51.40;50.85;54.37;;
79200;Laerm;68628;48.714;9.472;2023-08-12T05:47:19;51.32;50.71;51.83;;
79200;Laerm;68628;48.714;9.472;2023-08-12T05:49:50;51.37;50.80;52.09;;
79200;Laerm;68628;48.714;9.472;2023-08-12T05:52:18;51.36;50.77;51.94;;
79200;Laerm;68628;48.714;9.472;2023-08-12T05:54:50;51.33;50.65;51.92;;
79200;Laerm;68628;48.714;9.472;2023-08-12T05:57:27;51.42;50.76;54.94;;
79200;Laerm;68628;48.714;9.472;2023-08-12T06:00:02;51.51;50.74;55.12;;
79200;Laerm;68628;48.714;9.472;2023-08-12T06:02:53;51.35;50.74;51.97;;
79200;Laerm;68628;48.714;9.472;2023-08-12T06:05:19;51.32;50.76;51.87;;
79200;Laerm;68628;48.714;9.472;2023-08-12T06:07:56;51.30;50.61;51.84;;
79200;Laerm;68628;48.714;9.472;2023-08-12T06:10:27;51.29;50.71;51.90;;
79200;Laerm;68628;48.714;9.472;2023-08-12T06:13:02;51.30;50.66;51.93;;
79200;Laerm;68628;48.714;9.472;2023-08-12T06:15:31;51.28;50.78;51.84;;
79200;Laerm;68628;48.714;9.472;2023-08-12T06:18:05;51.27;50.73;51.92;;
79200;Laerm;68628;48.714;9.472;2023-08-12T06:20:40;51.27;50.69;51.94;;
79200;Laerm;68628;48.714;9.472;2023-08-12T06:23:13;51.24;50.74;51.81;;
79200;Laerm;68628;48.714;9.472;2023-08-12T06:25:40;51.22;50.64;51.72;;
79200;Laerm;68628;48.714;9.472;2023-08-12T06:28:14;51.19;50.62;51.72;;
79200;Laerm;68628;48.714;9.472;2023-08-12T06:30:45;51.18;50.50;51.80;;
79200;Laerm;68628;48.714;9.472;2023-08-12T06:36:24;51.45;50.61;54.43;;
79200;Laerm;68628;48.714;9.472;2023-08-12T06:38:59;51.15;50.65;52.04;;
79200;Laerm;68628;48.714;9.472;2023-08-12T06:41:28;51.15;50.62;51.76;;
79200;Laerm;68628;48.714;9.472;2023-08-12T06:44:08;51.15;50.59;51.81;;
79200;Laerm;68628;48.714;9.472;2023-08-12T06:46:47;51.14;50.56;51.72;;
79200;Laerm;68628;48.714;9.472;2023-08-12T06:49:16;51.19;50.73;51.95;;
79200;Laerm;68628;48.714;9.472;2023-08-12T06:51:51;51.18;50.67;51.77;;
79200;Laerm;68628;48.714;9.472;2023-08-12T06:54:19;51.18;50.55;52.03;;
79200;Laerm;68628;48.714;9.472;2023-08-12T06:56:45;51.29;50.62;53.71;;
79200;Laerm;68628;48.714;9.472;2023-08-12T06:59:21;51.35;50.83;51.92;;
79200;Laerm;68628;48.714;9.472;2023-08-12T07:01:47;51.36;50.65;56.03;;
79200;Laerm;68628;48.714;9.472;2023-08-12T07:04:12;51.30;50.67;52.01;;
79200;Laerm;68628;48.714;9.472;2023-08-12T07:06:38;51.29;50.61;52.08;;
79200;Laerm;68628;48.714;9.472;2023-08-12T07:09:03;51.32;50.75;54.18;;
79200;Laerm;68628;48.714;9.472;2023-08-12T07:11:29;51.32;50.65;52.66;;
79200;Laerm;68628;48.714;9.472;2023-08-12T07:13:55;51.21;50.46;52.09;;
79200;Laerm;68628;48.714;9.472;2023-08-12T07:16:20;51.19;50.68;51.76;;
79200;Laerm;68628;48.714;9.472;2023-08-12T07:18:46;51.32;50.69;52.34;;
79200;Laerm;68628;48.714;9.472;2023-08-12T07:21:11;51.30;50.68;54.32;;
79200;Laerm;68628;48.714;9.472;2023-08-12T07:23:37;51.26;50.68;52.27;;
79200;Laerm;68628;48.714;9.472;2023-08-12T07:26:02;51.45;50.63;56.29;;
79200;Laerm;68628;48.714;9.472;2023-08-12T07:28:28;51.03;50.34;51.73;;
79200;Laerm;68628;48.714;9.472;2023-08-12T07:30:54;51.01;50.47;51.77;;
79200;Laerm;68628;48.714;9.472;2023-08-12T07:33:20;51.13;50.53;53.13;;
79200;Laerm;68628;48.714;9.472;2023-08-12T07:35:47;51.01;50.45;52.15;;
79200;Laerm;68628;48.714;9.472;2023-08-12T07:38:12;51.00;50.40;53.03;;
79200;Laerm;68628;48.714;9.472;2023-08-12T07:40:38;51.12;50.36;52.26;;
79200;Laerm;68628;48.714;9.472;2023-08-12T07:43:03;51.13;50.49;51.92;;
79200;Laerm;68628;48.714;9.472;2023-08-12T07:45:29;51.68;50.71;52.72;;
79200;Laerm;68628;48.714;9.472;2023-08-12T07:47:55;51.65;50.89;53.15;;
79200;Laerm;68628;48.714;9.472;2023-08-12T07:50:20;51.91;50.89;54.05;;
79200;Laerm;68628;48.714;9.472;2023-08-12T07:52:46;53.53;52.06;56.59;;
79200;Laerm;68628;48.714;9.472;2023-08-12T07:55:12;53.32;51.59;56.40;;
79200;Laerm;68628;48.714;9.472;2023-08-12T07:57:37;53.26;51.94;57.78;;
79200;Laerm;68628;48.714;9.472;2023-08-12T08:00:04;53.88;50.32;67.70;;
79200;Laerm;68628;48.714;9.472;2023-08-12T08:02:30;53.43;50.39;65.72;;
79200;Laerm;68628;48.714;9.472;2023-08-12T08:04:56;55.26;51.01;67.75;;
79200;Laerm;68628;48.714;9.472;2023-08-12T08:07:22;54.22;50.49;63.06;;
79200;Laerm;68628;48.714;9.472;2023-08-12T08:09:47;54.70;50.33;63.84;;
79200;Laerm;68628;48.714;9.472;2023-08-12T08:12:13;51.69;50.37;60.29;;
79200;Laerm;68628;48.714;9.472;2023-08-12T08:14:39;52.59;50.21;63.25;;
79200;Laerm;68628;48.714;9.472;2023-08-12T08:17:04;51.22;50.09;59.51;;
79200;Laerm;68628;48.714;9.472;2023-08-12T08:19:30;51.07;50.01;59.30;;
79200;Laerm;68628;48.714;9.472;2023-08-12T08:21:57;51.21;49.92;59.10;;
79200;Laerm;68628;48.714;9.472;2023-08-12T08:24:23;52.12;49.84;63.67;;
79200;Laerm;68628;48.714;9.472;2023-08-12T08:26:48;51.69;49.95;61.11;;
79200;Laerm;68628;48.714;9.472;2023-08-12T08:29:14;52.26;50.28;58.60;;
79200;Laerm;68628;48.714;9.472;2023-08-12T08:31:40;56.12;50.53;62.84;;
79200;Laerm;68628;48.714;9.472;2023-08-12T08:34:06;58.02;51.80;65.20;;
79200;Laerm;68628;48.714;9.472;2023-08-12T08:36:32;57.47;51.50;66.91;;
79200;Laerm;68628;48.714;9.472;2023-08-12T08:38:57;54.75;51.02;64.51;;
79200;Laerm;68628;48.714;9.472;2023-08-12T08:41:24;53.89;50.39;63.63;;
79200;Laerm;68628;48.714;9.472;2023-08-12T08:43:52;52.78;50.40;60.89;;
79200;Laerm;68628;48.714;9.472;2023-08-12T08:46:21;53.22;50.34;63.09;;
79200;Laerm;68628;48.714;9.472;2023-08-12T08:48:48;53.18;50.39;62.13;;
79200;Laerm;68628;48.714;9.472;2023-08-12T08:51:19;52.85;50.29;60.28;;
79200;Laerm;68628;48.714;9.472;2023-08-12T08:53:47;53.43;50.45;61.18;;
79200;Laerm;68628;48.714;9.472;2023-08-12T08:56:13;54.44;50.69;64.03;;
79200;Laerm;68628;48.714;9.472;2023-08-12T08:58:39;54.04;51.17;63.38;;
79200;Laerm;68628;48.714;9.472;2023-08-12T09:01:08;60.78;51.46;67.08;;
79200;Laerm;68628;48.714;9.472;2023-08-12T09:03:38;61.77;55.21;67.64;;
79200;Laerm;68628;48.714;9.472;2023-08-12T09:06:04;59.33;54.06;67.22;;
79200;Laerm;68628;48.714;9.472;2023-08-12T09:08:32;60.29;54.49;68.99;;
79200;Laerm;68628;48.714;9.472;2023-08-12T09:11:01;59.23;54.56;73.03;;
79200;Laerm;68628;48.714;9.472;2023-08-12T09:13:28;63.44;52.39;72.94;;
79200;Laerm;68628;48.714;9.472;2023-08-12T09:15:54;66.32;51.32;73.11;;
79200;Laerm;68628;48.714;9.472;2023-08-12T09:18:20;59.22;50.99;70.03;;
79200;Laerm;68628;48.714;9.472;2023-08-12T09:20:53;61.23;53.83;71.28;;
79200;Laerm;68628;48.714;9.472;2023-08-12T09:23:19;61.35;55.33;72.12;;
79200;Laerm;68628;48.714;9.472;2023-08-12T09:25:45;61.03;52.95;73.07;;
79200;Laerm;68628;48.714;9.472;2023-08-12T09:28:12;60.79;54.28;70.44;;
79200;Laerm;68628;48.714;9.472;2023-08-12T09:30:39;62.54;56.39;70.93;;
79200;Laerm;68628;48.714;9.472;2023-08-12T09:33:07;63.87;59.55;69.80;;
79200;Laerm;68628;48.714;9.472;2023-08-12T09:35:41;61.22;56.95;69.60;;
79200;Laerm;68628;48.714;9.472;2023-08-12T09:38:12;60.39;56.99;68.68;;
79200;Laerm;68628;48.714;9.472;2023-08-12T09:40:39;61.85;58.80;70.11;;
79200;Laerm;68628;48.714;9.472;2023-08-12T09:43:06;61.88;58.18;69.17;;
79200;Laerm;68628;48.714;9.472;2023-08-12T09:45:33;62.54;59.34;69.62;;
79200;Laerm;68628;48.714;9.472;2023-08-12T09:47:59;62.04;59.38;68.54;;
79200;Laerm;68628;48.714;9.472;2023-08-12T09:55:23;0.00;0.00;0.00;;
79200;Laerm;68628;48.714;9.472;2023-08-12T09:57:52;69.33;60.60;80.05;;
79200;Laerm;68628;48.714;9.472;2023-08-12T10:00:21;70.36;55.98;80.30;;
79200;Laerm;68628;48.714;9.472;2023-08-12T10:02:50;66.64;54.53;77.81;;
79200;Laerm;68628;48.714;9.472;2023-08-12T10:05:28;69.04;54.17;75.88;;
79200;Laerm;68628;48.714;9.472;2023-08-12T10:07:54;66.00;52.64;76.28;;
79200;Laerm;68628;48.714;9.472;2023-08-12T10:10:21;70.70;56.44;75.93;;
79200;Laerm;68628;48.714;9.472;2023-08-12T10:12:51;68.49;52.29;78.45;;
79200;Laerm;68628;48.714;9.472;2023-08-12T10:15:17;73.60;55.21;79.78;;
79200;Laerm;68628;48.714;9.472;2023-08-12T10:17:43;66.18;56.04;76.39;;
79200;Laerm;68628;48.714;9.472;2023-08-12T10:20:14;77.96;56.95;85.81;;
79200;Laerm;68628;48.714;9.472;2023-08-12T10:22:42;82.37;60.23;86.10;;
79200;Laerm;68628;48.714;9.472;2023-08-12T10:25:09;74.40;60.10;85.00;;
79200;Laerm;68628;48.714;9.472;2023-08-12T10:27:36;67.08;56.40;71.54;;
79200;Laerm;68628;48.714;9.472;2023-08-12T10:30:06;66.88;52.99;72.72;;
79200;Laerm;68628;48.714;9.472;2023-08-12T10:32:34;64.45;52.23;70.10;;
79200;Laerm;68628;48.714;9.472;2023-08-12T10:35:00;63.42;53.40;68.89;;
79200;Laerm;68628;48.714;9.472;2023-08-12T10:37:33;63.65;55.10;68.27;;
79200;Laerm;68628;48.714;9.472;2023-08-12T10:40:02;63.33;55.79;71.10;;
79200;Laerm;68628;48.714;9.472;2023-08-12T10:42:43;62.71;55.22;68.00;;
79200;Laerm;68628;48.714;9.472;2023-08-12T10:45:12;61.03;53.16;65.93;;
79200;Laerm;68628;48.714;9.472;2023-08-12T10:50:36;61.13;52.95;67.77;;
79200;Laerm;68628;48.714;9.472;2023-08-12T10:53:29;59.49;54.20;63.26;;
79200;Laerm;68628;48.714;9.472;2023-08-12T10:56:05;61.67;51.13;67.94;;
79200;Laerm;68628;48.714;9.472;2023-08-12T10:58:44;61.63;52.12;73.86;;
79200;Laerm;68628;48.714;9.472;2023-08-12T11:01:19;59.93;55.06;67.44;;
79200;Laerm;68628;48.714;9.472;2023-08-12T11:03:48;61.38;55.78;70.13;;
79200;Laerm;68628;48.714;9.472;2023-08-12T11:06:14;59.32;52.83;69.48;;
79200;Laerm;68628;48.714;9.472;2023-08-12T11:08:47;59.72;54.42;68.94;;
79200;Laerm;68628;48.714;9.472;2023-08-12T11:11:23;58.81;52.36;68.25;;
79200;Laerm;68628;48.714;9.472;2023-08-12T11:13:58;57.24;51.96;67.90;;
79200;Laerm;68628;48.714;9.472;2023-08-12T11:16:37;57.09;51.47;68.24;;
79200;Laerm;68628;48.714;9.472;2023-08-12T11:19:04;56.88;51.46;67.73;;
79200;Laerm;68628;48.714;9.472;2023-08-12T11:21:30;57.14;50.98;66.91;;
79200;Laerm;68628;48.714;9.472;2023-08-12T11:24:01;57.12;52.34;67.58;;
79200;Laerm;68628;48.714;9.472;2023-08-12T11:26:28;57.21;50.93;68.33;;
79200;Laerm;68628;48.714;9.472;2023-08-12T11:28:54;57.60;50.80;67.25;;
79200;Laerm;68628;48.714;9.472;2023-08-12T11:31:21;56.79;52.29;67.70;;
79200;Laerm;68628;48.714;9.472;2023-08-12T11:33:48;56.41;52.07;67.01;;
79200;Laerm;68628;48.714;9.472;2023-08-12T11:36:14;57.51;51.34;68.53;;
79200;Laerm;68628;48.714;9.472;2023-08-12T11:38:41;56.93;51.84;67.54;;
79200;Laerm;68628;48.714;9.472;2023-08-12T11:41:07;57.50;51.66;66.73;;
79200;Laerm;68628;48.714;9.472;2023-08-12T11:43:33;57.91;52.52;67.49;;
79200;Laerm;68628;48.714;9.472;2023-08-12T11:45:59;58.05;52.74;66.28;;
79200;Laerm;68628;48.714;9.472;2023-08-12T11:48:27;58.19;52.23;66.36;;
79200;Laerm;68628;48.714;9.472;2023-08-12T11:50:54;59.86;52.88;67.64;;
79200;Laerm;68628;48.714;9.472;2023-08-12T11:53:21;60.50;52.53;66.34;;
79200;Laerm;68628;48.714;9.472;2023-08-12T11:55:47;57.64;51.68;64.41;;
79200;Laerm;68628;48.714;9.472;2023-08-12T11:58:14;57.67;51.67;64.66;;
79200;Laerm;68628;48.714;9.472;2023-08-12T12:00:49;58.02;51.59;65.08;;
79200;Laerm;68628;48.714;9.472;2023-08-12T12:03:16;59.49;53.31;65.64;;
79200;Laerm;68628;48.714;9.472;2023-08-12T12:05:46;59.86;53.31;64.81;;
79200;Laerm;68628;48.714;9.472;2023-08-12T12:08:13;60.21;54.66;65.26;;
79200;Laerm;68628;48.714;9.472;2023-08-12T12:10:39;60.54;55.03;66.75;;
79200;Laerm;68628;48.714;9.472;2023-08-12T12:13:06;60.91;55.38;65.97;;
79200;Laerm;68628;48.714;9.472;2023-08-12T12:15:39;61.29;54.67;66.26;;
79200;Laerm;68628;48.714;9.472;2023-08-12T12:18:13;61.30;56.58;65.83;;
79200;Laerm;68628;48.714;9.472;2023-08-12T12:23:21;60.43;53.78;65.19;;
79200;Laerm;68628;48.714;9.472;2023-08-12T12:25:47;59.90;52.76;65.64;;
79200;Laerm;68628;48.714;9.472;2023-08-12T12:28:12;60.17;54.46;65.35;;
79200;Laerm;68628;48.714;9.472;2023-08-12T12:30:38;59.94;54.95;64.26;;
79200;Laerm;68628;48.714;9.472;2023-08-12T12:33:04;59.84;53.32;63.96;;
79200;Laerm;68628;48.714;9.472;2023-08-12T12:35:30;60.07;52.49;65.40;;
79200;Laerm;68628;48.714;9.472;2023-08-12T12:37:55;59.40;54.20;63.95;;
79200;Laerm;68628;48.714;9.472;2023-08-12T12:40:21;59.67;53.25;64.82;;
79200;Laerm;68628;48.714;9.472;2023-08-12T12:42:46;59.20;52.49;64.03;;
79200;Laerm;68628;48.714;9.472;2023-08-12T12:45:12;59.19;53.58;63.72;;
79200;Laerm;68628;48.714;9.472;2023-08-12T12:47:37;58.82;53.68;63.44;;
79200;Laerm;68628;48.714;9.472;2023-08-12T12:50:04;58.44;53.48;63.26;;
79200;Laerm;68628;48.714;9.472;2023-08-12T12:52:30;58.54;53.98;62.27;;
79200;Laerm;68628;48.714;9.472;2023-08-12T12:54:55;58.22;53.53;62.23;;
79200;Laerm;68628;48.714;9.472;2023-08-12T12:57:22;56.57;51.33;63.04;;
79200;Laerm;68628;48.714;9.472;2023-08-12T12:59:48;53.68;50.31;59.45;;
79200;Laerm;68628;48.714;9.472;2023-08-12T13:02:14;52.92;50.76;58.79;;
79200;Laerm;68628;48.714;9.472;2023-08-12T13:04:40;52.71;50.50;59.51;;
79200;Laerm;68628;48.714;9.472;2023-08-12T13:07:06;52.63;50.52;62.75;;
79200;Laerm;68628;48.714;9.472;2023-08-12T13:09:31;52.45;50.57;56.41;;
79200;Laerm;68628;48.714;9.472;2023-08-12T13:11:57;55.64;50.66;60.00;;
79200;Laerm;68628;48.714;9.472;2023-08-12T13:14:23;54.44;50.53;60.01;;
79200;Laerm;68628;48.714;9.472;2023-08-12T13:16:49;53.81;50.44;59.57;;
79200;Laerm;68628;48.714;9.472;2023-08-12T13:19:15;53.97;50.34;59.88;;
79200;Laerm;68628;48.714;9.472;2023-08-12T13:21:40;53.88;50.36;60.47;;
79200;Laerm;68628;48.714;9.472;2023-08-12T13:24:06;54.02;50.54;59.66;;
79200;Laerm;68628;48.714;9.472;2023-08-12T13:26:31;53.92;50.50;59.51;;
79200;Laerm;68628;48.714;9.472;2023-08-12T13:28:57;53.92;50.32;61.09;;
79200;Laerm;68628;48.714;9.472;2023-08-12T13:31:23;54.18;50.62;61.39;;
79200;Laerm;68628;48.714;9.472;2023-08-12T13:33:50;53.98;50.70;59.62;;
79200;Laerm;68628;48.714;9.472;2023-08-12T13:36:15;54.11;50.68;58.08;;
79200;Laerm;68628;48.714;9.472;2023-08-12T13:38:41;54.35;50.55;59.03;;
79200;Laerm;68628;48.714;9.472;2023-08-12T13:41:06;54.74;50.67;59.24;;
79200;Laerm;68628;48.714;9.472;2023-08-12T13:43:32;54.10;50.87;59.85;;
79200;Laerm;68628;48.714;9.472;2023-08-12T13:45:58;54.12;50.66;58.33;;
79200;Laerm;68628;48.714;9.472;2023-08-12T13:48:23;53.67;50.57;58.02;;
79200;Laerm;68628;48.714;9.472;2023-08-12T13:50:49;54.09;50.67;58.22;;
79200;Laerm;68628;48.714;9.472;2023-08-12T13:53:15;53.72;50.59;58.75;;
79200;Laerm;68628;48.714;9.472;2023-08-12T13:55:41;53.79;50.85;58.34;;
79200;Laerm;68628;48.714;9.472;2023-08-12T13:58:07;53.64;50.76;57.71;;
79200;Laerm;68628;48.714;9.472;2023-08-12T14:00:32;53.79;50.75;57.85;;
79200;Laerm;68628;48.714;9.472;2023-08-12T14:02:58;54.38;50.90;58.84;;
79200;Laerm;68628;48.714;9.472;2023-08-12T14:05:23;54.79;50.76;58.82;;
79200;Laerm;68628;48.714;9.472;2023-08-12T14:07:49;54.49;50.52;58.64;;
79200;Laerm;68628;48.714;9.472;2023-08-12T14:10:15;55.65;50.69;60.46;;